sensor_id;sensor_type;location;lat;lon;timestamp;pressure;altitude;pressure_sealevel;temperature;humidity
46724;BME280;32463;48.298;11.620;2023-02-21T00:02:04;96756.06;;;5.26;100.00
46724;BME280;32463;48.298;11.620;2023-02-21T00:04:48;96768.22;;;5.13;100.00
46724;BME280;32463;48.298;11.620;2023-02-21T00:07:32;96766.66;;;4.99;100.00
46724;BME280;32463;48.298;11.620;2023-02-21T00:10:16;96765.28;;;5.06;100.00
46724;BME280;32463;48.298;11.620;2023-02-21T00:13:00;96758.13;;;4.98;100.00
46724;BME280;32463;48.298;11.620;2023-02-21T00:15:44;96763.16;;;5.00;100.00
46724;BME280;32463;48.298;11.620;2023-02-21T00:18:35;96763.84;;;4.91;100.00
46724;BME280;32463;48.298;11.620;2023-02-21T00:21:19;96760.31;;;4.81;100.00
46724;BME280;32463;48.298;11.620;2023-02-21T00:24:03;96756.56;;;4.73;100.00
46724;BME280;32463;48.298;11.620;2023-02-21T00:26:47;96766.34;;;4.68;100.00
46724;BME280;32463;48.298;11.620;2023-02-21T00:29:31;96767.56;;;4.52;100.00
46724;BME280;32463;48.298;11.620;2023-02-21T00:32:15;96756.94;;;4.45;100.00
46724;BME280;32463;48.298;11.620;2023-02-21T00:35:01;96756.38;;;4.53;100.00
46724;BME280;32463;48.298;11.620;2023-02-21T00:37:49;96756.16;;;4.56;100.00
46724;BME280;32463;48.298;11.620;2023-02-21T00:40:32;96762.38;;;4.40;100.00
46724;BME280;32463;48.298;11.620;2023-02-21T00:43:17;96752.19;;;4.28;100.00
46724;BME280;32463;48.298;11.620;2023-02-21T00:46:02;96751.41;;;4.15;100.00
46724;BME280;32463;48.298;11.620;2023-02-21T00:48:46;96746.56;;;4.23;100.00
46724;BME280;32463;48.298;11.620;2023-02-21T00:51:30;96750.41;;;4.04;100.00
46724;BME280;32463;48.298;11.620;2023-02-21T00:54:14;96748.56;;;4.06;100.00
46724;BME280;32463;48.298;11.620;2023-02-21T00:56:58;96750.41;;;4.04;100.00
46724;BME280;32463;48.298;11.620;2023-02-21T00:59:42;96741.59;;;4.09;100.00
46724;BME280;32463;48.298;11.620;2023-02-21T01:02:27;96750.09;;;3.85;100.00
46724;BME280;32463;48.298;11.620;2023-02-21T01:05:11;96741.44;;;3.62;100.00
46724;BME280;32463;48.298;11.620;2023-02-21T01:07:55;96750.38;;;3.44;100.00
46724;BME280;32463;48.298;11.620;2023-02-21T01:10:39;96748.56;;;3.33;100.00
46724;BME280;32463;48.298;11.620;2023-02-21T01:13:23;96733.59;;;3.15;100.00
46724;BME280;32463;48.298;11.620;2023-02-21T01:16:07;96731.31;;;3.10;100.00
46724;BME280;32463;48.298;11.620;2023-02-21T01:18:51;96736.66;;;3.07;100.00
46724;BME280;32463;48.298;11.620;2023-02-21T01:21:35;96736.88;;;3.04;100.00
46724;BME280;32463;48.298;11.620;2023-02-21T01:24:18;96735.84;;;2.94;100.00
46724;BME280;32463;48.298;11.620;2023-02-21T01:27:02;96731.31;;;2.85;100.00
46724;BME280;32463;48.298;11.620;2023-02-21T01:29:47;96728.88;;;2.83;100.00
46724;BME280;32463;48.298;11.620;2023-02-21T01:32:31;96729.50;;;2.99;100.00
46724;BME280;32463;48.298;11.620;2023-02-21T01:35:15;96727.31;;;3.06;100.00
46724;BME280;32463;48.298;11.620;2023-02-21T01:37:59;96730.09;;;3.16;100.00
46724;BME280;32463;48.298;11.620;2023-02-21T01:40:43;96727.59;;;3.39;100.00
46724;BME280;32463;48.298;11.620;2023-02-21T01:43:27;96725.13;;;3.51;100.00
46724;BME280;32463;48.298;11.620;2023-02-21T01:46:14;96731.34;;;3.35;100.00
46724;BME280;32463;48.298;11.620;2023-02-21T01:49:00;96720.47;;;3.19;100.00
46724;BME280;32463;48.298;11.620;2023-02-21T01:51:45;96715.13;;;3.22;100.00
46724;BME280;32463;48.298;11.620;2023-02-21T01:54:33;96719.22;;;3.12;100.00
46724;BME280;32463;48.298;11.620;2023-02-21T01:57:19;96716.41;;;3.04;100.00
46724;BME280;32463;48.298;11.620;2023-02-21T02:00:06;96711.47;;;3.01;100.00
46724;BME280;32463;48.298;11.620;2023-02-21T02:03:05;96704.72;;;3.00;100.00
46724;BME280;32463;48.298;11.620;2023-02-21T02:06:01;96715.97;;;2.85;100.00
46724;BME280;32463;48.298;11.620;2023-02-21T02:08:46;96703.06;;;2.74;100.00
46724;BME280;32463;48.298;11.620;2023-02-21T02:12:03;96697.09;;;2.60;100.00
46724;BME280;32463;48.298;11.620;2023-02-21T02:45:27;96688.88;;;2.30;100.00
46724;BME280;32463;48.298;11.620;2023-02-21T02:48:02;96683.72;;;2.17;100.00
46724;BME280;32463;48.298;11.620;2023-02-21T02:50:32;96693.94;;;2.05;100.00
46724;BME280;32463;48.298;11.620;2023-02-21T02:53:01;96687.81;;;2.07;100.00
46724;BME280;32463;48.298;11.620;2023-02-21T02:57:59;96689.00;;;2.01;100.00
46724;BME280;32463;48.298;11.620;2023-02-21T03:00:29;96687.56;;;1.97;100.00
46724;BME280;32463;48.298;11.620;2023-02-21T03:03:25;96693.84;;;2.19;100.00
46724;BME280;32463;48.298;11.620;2023-02-21T03:08:57;96693.28;;;2.28;100.00
46724;BME280;32463;48.298;11.620;2023-02-21T03:11:25;96692.75;;;2.23;100.00
46724;BME280;32463;48.298;11.620;2023-02-21T03:14:13;96691.19;;;2.08;100.00
46724;BME280;32463;48.298;11.620;2023-02-21T03:16:45;96684.91;;;1.99;100.00
46724;BME280;32463;48.298;11.620;2023-02-21T03:19:19;96687.22;;;1.89;100.00
46724;BME280;32463;48.298;11.620;2023-02-21T03:21:54;96688.25;;;2.14;100.00
46724;BME280;32463;48.298;11.620;2023-02-21T03:24:22;96674.97;;;2.34;100.00
46724;BME280;32463;48.298;11.620;2023-02-21T03:26:52;96679.06;;;2.36;100.00
46724;BME280;32463;48.298;11.620;2023-02-21T03:29:22;96676.03;;;2.44;100.00
46724;BME280;32463;48.298;11.620;2023-02-21T03:31:54;96684.84;;;2.65;100.00
46724;BME280;32463;48.298;11.620;2023-02-21T03:34:21;96672.13;;;2.64;100.00
46724;BME280;32463;48.298;11.620;2023-02-21T03:36:48;96687.47;;;2.77;100.00
46724;BME280;32463;48.298;11.620;2023-02-21T03:39:14;96685.25;;;2.85;100.00
46724;BME280;32463;48.298;11.620;2023-02-21T03:41:41;96682.47;;;2.88;100.00
46724;BME280;32463;48.298;11.620;2023-02-21T03:44:07;96675.63;;;2.88;100.00
46724;BME280;32463;48.298;11.620;2023-02-21T03:46:34;96680.53;;;2.79;100.00
46724;BME280;32463;48.298;11.620;2023-02-21T03:49:00;96693.22;;;2.67;100.00
46724;BME280;32463;48.298;11.620;2023-02-21T03:51:26;96684.72;;;2.54;100.00
46724;BME280;32463;48.298;11.620;2023-02-21T03:53:53;96685.31;;;2.45;100.00
46724;BME280;32463;48.298;11.620;2023-02-21T03:56:19;96684.19;;;2.49;100.00
46724;BME280;32463;48.298;11.620;2023-02-21T03:58:46;96682.53;;;2.48;100.00
46724;BME280;32463;48.298;11.620;2023-02-21T04:01:12;96669.97;;;2.58;100.00
46724;BME280;32463;48.298;11.620;2023-02-21T04:03:40;96675.41;;;2.66;100.00
46724;BME280;32463;48.298;11.620;2023-02-21T04:06:06;96676.22;;;2.79;100.00
46724;BME280;32463;48.298;11.620;2023-02-21T04:08:33;96669.28;;;2.94;100.00
46724;BME280;32463;48.298;11.620;2023-02-21T04:10:59;96669.28;;;2.94;100.00
46724;BME280;32463;48.298;11.620;2023-02-21T04:13:26;96666.00;;;3.04;100.00
46724;BME280;32463;48.298;11.620;2023-02-21T04:15:53;96665.53;;;3.11;100.00
46724;BME280;32463;48.298;11.620;2023-02-21T04:18:19;96658.56;;;3.13;100.00
46724;BME280;32463;48.298;11.620;2023-02-21T04:20:46;96646.81;;;3.10;100.00
46724;BME280;32463;48.298;11.620;2023-02-21T04:23:19;96662.88;;;3.12;100.00
46724;BME280;32463;48.298;11.620;2023-02-21T04:25:47;96657.13;;;3.21;100.00
46724;BME280;32463;48.298;11.620;2023-02-21T04:28:13;96664.31;;;3.16;100.00
46724;BME280;32463;48.298;11.620;2023-02-21T04:30:41;96658.78;;;3.10;100.00
46724;BME280;32463;48.298;11.620;2023-02-21T04:33:07;96663.91;;;3.10;100.00
46724;BME280;32463;48.298;11.620;2023-02-21T04:35:33;96659.13;;;3.05;100.00
46724;BME280;32463;48.298;11.620;2023-02-21T04:38:01;96664.75;;;2.85;100.00
46724;BME280;32463;48.298;11.620;2023-02-21T04:40:28;96655.22;;;2.87;100.00
46724;BME280;32463;48.298;11.620;2023-02-21T04:42:54;96659.44;;;2.88;100.00
46724;BME280;32463;48.298;11.620;2023-02-21T04:45:21;96654.50;;;2.85;100.00
46724;BME280;32463;48.298;11.620;2023-02-21T04:47:47;96662.28;;;2.83;100.00
46724;BME280;32463;48.298;11.620;2023-02-21T04:50:14;96660.25;;;2.76;100.00
46724;BME280;32463;48.298;11.620;2023-02-21T04:52:40;96655.84;;;2.65;100.00
46724;BME280;32463;48.298;11.620;2023-02-21T04:55:07;96658.59;;;2.49;100.00
46724;BME280;32463;48.298;11.620;2023-02-21T04:57:34;96661.59;;;2.43;100.00
46724;BME280;32463;48.298;11.620;2023-02-21T05:00:00;96650.00;;;2.38;100.00
46724;BME280;32463;48.298;11.620;2023-02-21T05:02:31;96653.38;;;2.38;100.00
46724;BME280;32463;48.298;11.620;2023-02-21T05:04:57;96655.75;;;2.41;100.00
46724;BME280;32463;48.298;11.620;2023-02-21T05:07:24;96655.94;;;2.38;100.00
46724;BME280;32463;48.298;11.620;2023-02-21T05:09:50;96651.03;;;2.35;100.00
46724;BME280;32463;48.298;11.620;2023-02-21T05:12:17;96643.69;;;2.43;100.00
46724;BME280;32463;48.298;11.620;2023-02-21T05:14:43;96644.88;;;2.38;100.00
46724;BME280;32463;48.298;11.620;2023-02-21T05:17:10;96636.69;;;2.45;100.00
46724;BME280;32463;48.298;11.620;2023-02-21T05:19:36;96638.31;;;2.46;100.00
46724;BME280;32463;48.298;11.620;2023-02-21T05:22:03;96640.47;;;2.52;100.00
46724;BME280;32463;48.298;11.620;2023-02-21T05:24:32;96637.94;;;2.52;100.00
46724;BME280;32463;48.298;11.620;2023-02-21T05:27:00;96626.59;;;2.44;100.00
46724;BME280;32463;48.298;11.620;2023-02-21T05:29:27;96621.25;;;2.34;100.00
46724;BME280;32463;48.298;11.620;2023-02-21T05:31:53;96624.59;;;2.22;100.00
46724;BME280;32463;48.298;11.620;2023-02-21T05:34:20;96636.66;;;2.20;100.00
46724;BME280;32463;48.298;11.620;2023-02-21T05:36:46;96628.59;;;2.13;100.00
46724;BME280;32463;48.298;11.620;2023-02-21T05:39:13;96615.19;;;2.10;100.00
46724;BME280;32463;48.298;11.620;2023-02-21T05:41:45;96635.44;;;2.13;100.00
46724;BME280;32463;48.298;11.620;2023-02-21T05:44:12;96634.78;;;1.96;100.00
46724;BME280;32463;48.298;11.620;2023-02-21T05:46:38;96638.84;;;1.86;100.00
46724;BME280;32463;48.298;11.620;2023-02-21T05:49:05;96642.91;;;1.76;100.00
46724;BME280;32463;48.298;11.620;2023-02-21T05:51:36;96643.28;;;1.70;100.00
46724;BME280;32463;48.298;11.620;2023-02-21T05:54:05;96635.47;;;1.59;100.00
46724;BME280;32463;48.298;11.620;2023-02-21T05:56:39;96645.88;;;1.56;100.00
46724;BME280;32463;48.298;11.620;2023-02-21T05:59:06;96644.56;;;1.36;100.00
46724;BME280;32463;48.298;11.620;2023-02-21T06:01:33;96658.88;;;1.39;100.00
46724;BME280;32463;48.298;11.620;2023-02-21T06:04:00;96667.56;;;1.36;100.00
46724;BME280;32463;48.298;11.620;2023-02-21T06:06:26;96666.84;;;1.34;100.00
46724;BME280;32463;48.298;11.620;2023-02-21T06:08:53;96672.75;;;1.34;100.00
46724;BME280;32463;48.298;11.620;2023-02-21T06:11:25;96668.03;;;1.28;100.00
46724;BME280;32463;48.298;11.620;2023-02-21T06:13:54;96671.06;;;1.21;100.00
46724;BME280;32463;48.298;11.620;2023-02-21T06:16:21;96667.16;;;1.15;100.00
46724;BME280;32463;48.298;11.620;2023-02-21T06:18:53;96679.34;;;1.10;100.00
46724;BME280;32463;48.298;11.620;2023-02-21T06:21:21;96675.63;;;1.01;100.00
46724;BME280;32463;48.298;11.620;2023-02-21T06:23:48;96680.09;;;0.98;100.00
46724;BME280;32463;48.298;11.620;2023-02-21T06:26:15;96679.91;;;1.01;100.00
46724;BME280;32463;48.298;11.620;2023-02-21T06:28:41;96684.53;;;0.94;100.00
46724;BME280;32463;48.298;11.620;2023-02-21T06:31:08;96680.38;;;1.08;100.00
46724;BME280;32463;48.298;11.620;2023-02-21T06:33:35;96679.72;;;1.04;100.00
46724;BME280;32463;48.298;11.620;2023-02-21T06:36:05;96682.81;;;1.09;100.00
46724;BME280;32463;48.298;11.620;2023-02-21T06:38:33;96686.84;;;1.13;100.00
46724;BME280;32463;48.298;11.620;2023-02-21T06:41:07;96690.28;;;1.26;100.00
46724;BME280;32463;48.298;11.620;2023-02-21T06:43:34;96689.00;;;1.33;100.00
46724;BME280;32463;48.298;11.620;2023-02-21T06:46:02;96700.41;;;1.42;100.00
46724;BME280;32463;48.298;11.620;2023-02-21T06:48:30;96700.31;;;1.44;100.00
46724;BME280;32463;48.298;11.620;2023-02-21T06:50:56;96693.50;;;1.57;100.00
46724;BME280;32463;48.298;11.620;2023-02-21T06:53:23;96702.06;;;1.70;100.00
46724;BME280;32463;48.298;11.620;2023-02-21T06:55:50;96698.34;;;1.88;100.00
46724;BME280;32463;48.298;11.620;2023-02-21T06:58:16;96703.34;;;2.04;100.00
46724;BME280;32463;48.298;11.620;2023-02-21T07:00:43;96702.44;;;2.18;100.00
46724;BME280;32463;48.298;11.620;2023-02-21T07:03:10;96709.16;;;2.33;100.00
46724;BME280;32463;48.298;11.620;2023-02-21T07:05:36;96704.03;;;2.46;100.00
46724;BME280;32463;48.298;11.620;2023-02-21T07:08:03;96708.38;;;2.58;100.00
46724;BME280;32463;48.298;11.620;2023-02-21T07:10:31;96710.03;;;2.72;100.00
46724;BME280;32463;48.298;11.620;2023-02-21T07:12:57;96704.69;;;2.87;100.00
46724;BME280;32463;48.298;11.620;2023-02-21T07:15:25;96702.88;;;3.02;100.00
46724;BME280;32463;48.298;11.620;2023-02-21T07:17:52;96702.03;;;3.14;100.00
46724;BME280;32463;48.298;11.620;2023-02-21T07:20:19;96698.94;;;3.34;100.00
46724;BME280;32463;48.298;11.620;2023-02-21T07:22:45;96707.19;;;3.51;100.00
46724;BME280;32463;48.298;11.620;2023-02-21T07:25:14;96703.78;;;3.63;100.00
46724;BME280;32463;48.298;11.620;2023-02-21T07:27:41;96703.63;;;3.77;100.00
46724;BME280;32463;48.298;11.620;2023-02-21T07:30:08;96706.38;;;3.87;100.00
46724;BME280;32463;48.298;11.620;2023-02-21T07:32:35;96706.31;;;3.99;100.00
46724;BME280;32463;48.298;11.620;2023-02-21T07:35:03;96710.38;;;4.15;100.00
46724;BME280;32463;48.298;11.620;2023-02-21T07:37:30;96709.94;;;4.21;100.00
46724;BME280;32463;48.298;11.620;2023-02-21T07:39:57;96703.53;;;4.26;100.00
46724;BME280;32463;48.298;11.620;2023-02-21T07:42:23;96717.38;;;4.48;100.00
46724;BME280;32463;48.298;11.620;2023-02-21T07:44:56;96707.00;;;4.49;100.00
46724;BME280;32463;48.298;11.620;2023-02-21T07:47:24;96701.44;;;4.66;100.00
46724;BME280;32463;48.298;11.620;2023-02-21T07:49:51;96700.44;;;4.80;100.00
46724;BME280;32463;48.298;11.620;2023-02-21T07:52:21;96703.47;;;4.96;100.00
46724;BME280;32463;48.298;11.620;2023-02-21T07:54:48;96716.47;;;5.17;100.00
46724;BME280;32463;48.298;11.620;2023-02-21T07:57:16;96718.34;;;5.37;100.00
46724;BME280;32463;48.298;11.620;2023-02-21T07:59:43;96729.31;;;5.51;100.00
46724;BME280;32463;48.298;11.620;2023-02-21T08:02:14;96724.28;;;5.60;100.00
46724;BME280;32463;48.298;11.620;2023-02-21T08:04:40;96729.78;;;5.78;100.00
46724;BME280;32463;48.298;11.620;2023-02-21T08:07:07;96728.09;;;5.88;100.00
46724;BME280;32463;48.298;11.620;2023-02-21T08:09:35;96723.44;;;6.04;100.00
46724;BME280;32463;48.298;11.620;2023-02-21T08:12:02;96720.00;;;6.15;100.00
46724;BME280;32463;48.298;11.620;2023-02-21T08:14:29;96713.31;;;6.24;100.00
46724;BME280;32463;48.298;11.620;2023-02-21T08:16:55;96712.34;;;6.36;100.00
46724;BME280;32463;48.298;11.620;2023-02-21T08:19:21;96723.03;;;6.52;100.00
46724;BME280;32463;48.298;11.620;2023-02-21T08:21:48;96706.25;;;6.58;100.00
46724;BME280;32463;48.298;11.620;2023-02-21T08:24:16;96695.91;;;6.69;100.00
46724;BME280;32463;48.298;11.620;2023-02-21T08:26:44;96709.22;;;6.95;100.00
46724;BME280;32463;48.298;11.620;2023-02-21T08:29:14;96719.63;;;7.14;100.00
46724;BME280;32463;48.298;11.620;2023-02-21T08:31:42;96723.50;;;7.29;100.00
46724;BME280;32463;48.298;11.620;2023-02-21T08:34:09;96708.63;;;7.42;100.00
46724;BME280;32463;48.298;11.620;2023-02-21T08:36:38;96720.97;;;7.79;97.72
46724;BME280;32463;48.298;11.620;2023-02-21T08:39:06;96711.75;;;7.86;95.11
46724;BME280;32463;48.298;11.620;2023-02-21T08:41:39;96721.06;;;8.18;90.25
46724;BME280;32463;48.298;11.620;2023-02-21T08:44:09;96720.53;;;8.24;89.22
46724;BME280;32463;48.298;11.620;2023-02-21T08:46:35;96714.84;;;8.49;86.74
46724;BME280;32463;48.298;11.620;2023-02-21T08:49:03;96703.13;;;8.64;85.28
46724;BME280;32463;48.298;11.620;2023-02-21T08:51:31;96710.44;;;8.88;81.02
46724;BME280;32463;48.298;11.620;2023-02-21T08:53:58;96704.56;;;9.15;79.17
46724;BME280;32463;48.298;11.620;2023-02-21T08:56:25;96711.19;;;9.18;77.80
46724;BME280;32463;48.298;11.620;2023-02-21T08:58:53;96704.34;;;9.36;76.71
46724;BME280;32463;48.298;11.620;2023-02-21T09:01:20;96702.88;;;9.61;74.68
46724;BME280;32463;48.298;11.620;2023-02-21T09:03:47;96705.47;;;10.33;69.57
46724;BME280;32463;48.298;11.620;2023-02-21T09:06:13;96701.25;;;10.32;69.35
46724;BME280;32463;48.298;11.620;2023-02-21T09:08:40;96721.22;;;10.40;68.72
46724;BME280;32463;48.298;11.620;2023-02-21T09:11:07;96704.81;;;10.31;68.33
46724;BME280;32463;48.298;11.620;2023-02-21T09:13:34;96705.53;;;10.24;68.73
46724;BME280;32463;48.298;11.620;2023-02-21T09:16:02;96726.44;;;10.12;69.45
46724;BME280;32463;48.298;11.620;2023-02-21T09:18:30;96727.59;;;10.00;69.70
46724;BME280;32463;48.298;11.620;2023-02-21T09:20:57;96698.53;;;9.79;70.40
46724;BME280;32463;48.298;11.620;2023-02-21T09:23:26;96699.84;;;10.10;70.69
46724;BME280;32463;48.298;11.620;2023-02-21T09:25:53;96693.91;;;10.45;69.98
46724;BME280;32463;48.298;11.620;2023-02-21T09:28:20;96685.34;;;10.89;67.19
46724;BME280;32463;48.298;11.620;2023-02-21T09:30:48;96696.09;;;11.02;65.28
46724;BME280;32463;48.298;11.620;2023-02-21T09:33:15;96696.75;;;11.64;63.23
46724;BME280;32463;48.298;11.620;2023-02-21T09:35:41;96695.31;;;11.27;63.20
46724;BME280;32463;48.298;11.620;2023-02-21T09:38:08;96674.69;;;11.60;62.91
46724;BME280;32463;48.298;11.620;2023-02-21T09:43:11;96692.75;;;12.11;59.88
46724;BME280;32463;48.298;11.620;2023-02-21T09:45:40;96677.25;;;11.86;59.43
46724;BME280;32463;48.298;11.620;2023-02-21T09:48:13;96694.25;;;12.87;58.31
46724;BME280;32463;48.298;11.620;2023-02-21T09:50:45;96685.44;;;13.29;55.77
46724;BME280;32463;48.298;11.620;2023-02-21T09:53:16;96683.53;;;13.62;54.88
46724;BME280;32463;48.298;11.620;2023-02-21T09:55:45;96676.59;;;13.85;52.82
46724;BME280;32463;48.298;11.620;2023-02-21T09:58:16;96686.94;;;14.01;52.34
46724;BME280;32463;48.298;11.620;2023-02-21T10:00:44;96687.16;;;14.23;52.49
46724;BME280;32463;48.298;11.620;2023-02-21T10:05:46;96699.16;;;14.32;52.10
46724;BME280;32463;48.298;11.620;2023-02-21T10:16:25;96698.47;;;15.95;47.52
46724;BME280;32463;48.298;11.620;2023-02-21T10:19:05;96674.63;;;16.40;45.89
46724;BME280;32463;48.298;11.620;2023-02-21T10:21:40;96676.59;;;16.17;45.58
46724;BME280;32463;48.298;11.620;2023-02-21T10:24:14;96677.31;;;15.75;46.75
46724;BME280;32463;48.298;11.620;2023-02-21T10:26:47;96689.50;;;16.19;46.01
46724;BME280;32463;48.298;11.620;2023-02-21T10:29:22;96687.16;;;16.45;44.82
46724;BME280;32463;48.298;11.620;2023-02-21T10:31:59;96699.06;;;17.18;43.85
46724;BME280;32463;48.298;11.620;2023-02-21T10:34:30;96687.75;;;17.39;42.81
46724;BME280;32463;48.298;11.620;2023-02-21T10:37:05;96686.16;;;16.89;43.71
46724;BME280;32463;48.298;11.620;2023-02-21T10:39:43;96687.34;;;17.42;42.07
46724;BME280;32463;48.298;11.620;2023-02-21T10:42:17;96680.13;;;17.50;41.96
46724;BME280;32463;48.298;11.620;2023-02-21T10:44:48;96685.09;;;17.67;41.58
46724;BME280;32463;48.298;11.620;2023-02-21T10:47:24;96692.28;;;18.67;39.77
46724;BME280;32463;48.298;11.620;2023-02-21T10:50:39;96669.16;;;18.36;39.59
46724;BME280;32463;48.298;11.620;2023-02-21T10:53:07;96671.72;;;18.09;39.58
46724;BME280;32463;48.298;11.620;2023-02-21T10:55:34;96676.22;;;17.74;40.77
46724;BME280;32463;48.298;11.620;2023-02-21T10:58:16;96665.25;;;18.05;40.60
46724;BME280;32463;48.298;11.620;2023-02-21T11:00:44;96681.56;;;18.68;41.01
46724;BME280;32463;48.298;11.620;2023-02-21T11:05:52;96667.19;;;19.57;38.58
46724;BME280;32463;48.298;11.620;2023-02-21T11:08:43;96661.41;;;20.31;36.88
46724;BME280;32463;48.298;11.620;2023-02-21T11:11:10;96654.94;;;20.27;36.91
46724;BME280;32463;48.298;11.620;2023-02-21T11:13:40;96642.84;;;20.50;36.04
46724;BME280;32463;48.298;11.620;2023-02-21T11:16:16;96663.22;;;20.93;34.61
46724;BME280;32463;48.298;11.620;2023-02-21T11:18:46;96660.16;;;21.21;34.69
46724;BME280;32463;48.298;11.620;2023-02-21T11:24:10;96632.38;;;20.75;35.85
46724;BME280;32463;48.298;11.620;2023-02-21T11:26:46;96635.94;;;21.49;34.98
46724;BME280;32463;48.298;11.620;2023-02-21T11:29:17;96644.13;;;20.73;35.46
46724;BME280;32463;48.298;11.620;2023-02-21T11:31:45;96626.28;;;21.18;34.82
46724;BME280;32463;48.298;11.620;2023-02-21T11:34:18;96628.50;;;21.76;33.96
46724;BME280;32463;48.298;11.620;2023-02-21T11:36:46;96602.72;;;21.41;33.72
46724;BME280;32463;48.298;11.620;2023-02-21T11:41:59;96612.31;;;21.91;34.31
46724;BME280;32463;48.298;11.620;2023-02-21T11:44:38;96591.56;;;22.24;33.55
46724;BME280;32463;48.298;11.620;2023-02-21T11:47:24;96587.81;;;22.43;32.83
46724;BME280;32463;48.298;11.620;2023-02-21T11:49:59;96602.59;;;23.09;32.12
46724;BME280;32463;48.298;11.620;2023-02-21T11:52:37;96591.13;;;22.80;31.97
46724;BME280;32463;48.298;11.620;2023-02-21T11:55:15;96584.69;;;21.20;34.27
46724;BME280;32463;48.298;11.620;2023-02-21T12:03:42;96590.84;;;20.71;35.00
46724;BME280;32463;48.298;11.620;2023-02-21T12:09:33;96562.13;;;21.06;34.24
46724;BME280;32463;48.298;11.620;2023-02-21T12:15:12;96568.69;;;21.40;34.29
46724;BME280;32463;48.298;11.620;2023-02-21T12:17:46;96570.97;;;22.14;32.14
46724;BME280;32463;48.298;11.620;2023-02-21T12:39:50;96535.94;;;25.43;29.03
46724;BME280;32463;48.298;11.620;2023-02-21T12:42:31;96523.06;;;26.33;28.01
46724;BME280;32463;48.298;11.620;2023-02-21T12:50:42;96512.88;;;25.66;28.31
46724;BME280;32463;48.298;11.620;2023-02-21T12:53:16;96494.44;;;25.81;27.67
46724;BME280;32463;48.298;11.620;2023-02-21T12:55:50;96490.41;;;25.78;27.43
46724;BME280;32463;48.298;11.620;2023-02-21T12:58:29;96497.38;;;24.75;28.56
46724;BME280;32463;48.298;11.620;2023-02-21T13:01:14;96500.03;;;25.84;27.58
46724;BME280;32463;48.298;11.620;2023-02-21T13:06:32;96491.47;;;27.26;27.18
46724;BME280;32463;48.298;11.620;2023-02-21T13:14:45;96457.25;;;25.32;27.23
46724;BME280;32463;48.298;11.620;2023-02-21T13:17:15;96467.81;;;24.16;29.11
46724;BME280;32463;48.298;11.620;2023-02-21T13:19:49;96454.19;;;23.34;30.88
46724;BME280;32463;48.298;11.620;2023-02-21T13:28:28;96439.03;;;22.90;31.39
46724;BME280;32463;48.298;11.620;2023-02-21T13:31:00;96432.19;;;21.77;32.73
46724;BME280;32463;48.298;11.620;2023-02-21T13:33:34;96441.00;;;23.96;30.46
46724;BME280;32463;48.298;11.620;2023-02-21T13:36:29;96432.44;;;26.34;28.13
46724;BME280;32463;48.298;11.620;2023-02-21T13:41:38;96421.97;;;25.32;27.94
46724;BME280;32463;48.298;11.620;2023-02-21T13:49:54;96427.38;;;24.04;29.27
46724;BME280;32463;48.298;11.620;2023-02-21T13:52:33;96418.50;;;26.54;27.26
46724;BME280;32463;48.298;11.620;2023-02-21T14:02:56;96389.03;;;22.76;30.79
46724;BME280;32463;48.298;11.620;2023-02-21T14:05:24;96385.38;;;21.61;33.05
46724;BME280;32463;48.298;11.620;2023-02-21T14:07:59;96401.72;;;22.39;32.58
46724;BME280;32463;48.298;11.620;2023-02-21T14:10:43;96399.84;;;21.10;33.94
46724;BME280;32463;48.298;11.620;2023-02-21T14:21:15;96390.88;;;22.88;31.39
46724;BME280;32463;48.298;11.620;2023-02-21T14:23:49;96379.44;;;23.56;31.13
46724;BME280;32463;48.298;11.620;2023-02-21T14:26:41;96383.88;;;21.65;33.34
46724;BME280;32463;48.298;11.620;2023-02-21T14:53:39;96364.72;;;16.22;44.09
46724;BME280;32463;48.298;11.620;2023-02-21T15:07:12;96326.22;;;14.82;47.78
46724;BME280;32463;48.298;11.620;2023-02-21T15:09:42;96324.31;;;14.91;47.66
46724;BME280;32463;48.298;11.620;2023-02-21T15:17:15;96320.19;;;14.82;48.30
46724;BME280;32463;48.298;11.620;2023-02-21T15:19:43;96333.06;;;14.83;48.83
46724;BME280;32463;48.298;11.620;2023-02-21T15:22:24;96319.75;;;14.78;48.70
46724;BME280;32463;48.298;11.620;2023-02-21T15:25:14;96327.75;;;14.77;49.53
46724;BME280;32463;48.298;11.620;2023-02-21T15:32:43;96311.38;;;14.47;50.81
46724;BME280;32463;48.298;11.620;2023-02-21T15:35:23;96312.44;;;14.38;51.33
46724;BME280;32463;48.298;11.620;2023-02-21T15:37:50;96319.66;;;14.36;51.55
46724;BME280;32463;48.298;11.620;2023-02-21T15:40:23;96315.97;;;14.30;51.51
46724;BME280;32463;48.298;11.620;2023-02-21T15:42:53;96301.50;;;14.13;51.12
46724;BME280;32463;48.298;11.620;2023-02-21T15:45:37;96330.34;;;14.11;51.91
46724;BME280;32463;48.298;11.620;2023-02-21T15:48:08;96307.16;;;13.87;52.04
46724;BME280;32463;48.298;11.620;2023-02-21T15:50:39;96303.41;;;13.75;53.21
46724;BME280;32463;48.298;11.620;2023-02-21T15:53:24;96309.06;;;13.64;53.96
46724;BME280;32463;48.298;11.620;2023-02-21T15:56:21;96318.91;;;13.54;55.40
46724;BME280;32463;48.298;11.620;2023-02-21T15:59:18;96314.22;;;13.34;56.00
46724;BME280;32463;48.298;11.620;2023-02-21T16:06:56;96308.78;;;13.21;56.82
46724;BME280;32463;48.298;11.620;2023-02-21T16:09:26;96297.91;;;13.18;57.29
46724;BME280;32463;48.298;11.620;2023-02-21T16:12:21;96296.03;;;13.03;57.84
46724;BME280;32463;48.298;11.620;2023-02-21T16:17:43;96302.28;;;12.71;58.54
46724;BME280;32463;48.298;11.620;2023-02-21T16:20:21;96305.63;;;12.57;59.61
46724;BME280;32463;48.298;11.620;2023-02-21T16:22:51;96299.22;;;12.37;60.91
46724;BME280;32463;48.298;11.620;2023-02-21T16:28:34;96300.38;;;11.95;62.84
46724;BME280;32463;48.298;11.620;2023-02-21T16:31:04;96311.91;;;11.93;63.56